createdAt,value
2019-05-13T00:00:23.517Z,0.00
2019-05-13T00:01:23.817Z,0.00
2019-05-13T00:02:23.989Z,0.00
2019-05-13T00:03:23.892Z,0.00
2019-05-13T00:04:24.046Z,0.00
2019-05-13T00:05:23.350Z,0.00
2019-05-13T00:06:23.801Z,0.00
2019-05-13T00:07:23.874Z,0.00
2019-05-13T00:08:24.684Z,0.00
2019-05-13T00:09:24.316Z,0.00
2019-05-13T00:10:24.194Z,0.00
2019-05-13T00:11:23.918Z,0.00
2019-05-13T00:12:23.893Z,0.00
2019-05-13T00:13:23.699Z,0.00
2019-05-13T00:14:23.816Z,0.00
2019-05-13T00:15:21.793Z,0.00
2019-05-13T00:16:23.480Z,0.00
2019-05-13T00:17:23.728Z,0.00
2019-05-13T00:18:23.505Z,0.00
2019-05-13T00:19:23.370Z,0.00
2019-05-13T00:20:24.007Z,0.00
2019-05-13T00:21:23.206Z,0.00
2019-05-13T00:22:23.401Z,0.00
2019-05-13T00:23:23.372Z,0.00
2019-05-13T00:24:21.691Z,0.00
2019-05-13T00:25:21.671Z,0.00
2019-05-13T00:26:21.696Z,0.00
2019-05-13T00:27:23.475Z,0.00
2019-05-13T00:28:23.472Z,0.00
2019-05-13T00:29:23.446Z,0.00
2019-05-13T00:30:23.505Z,0.00
2019-05-13T00:31:23.646Z,0.00
2019-05-13T00:32:23.610Z,0.00
2019-05-13T00:33:21.585Z,0.00
2019-05-13T00:34:21.573Z,0.00
2019-05-13T00:35:23.307Z,0.00
2019-05-13T00:36:21.581Z,0.00
2019-05-13T00:37:21.543Z,0.00
2019-05-13T00:38:21.533Z,0.00
2019-05-13T00:39:21.543Z,0.00
2019-05-13T00:40:21.511Z,0.00
2019-05-13T00:41:21.498Z,0.00
2019-05-13T00:42:21.655Z,0.00
2019-05-13T00:43:21.481Z,0.00
2019-05-13T00:44:21.493Z,0.00
2019-05-13T00:45:21.461Z,0.00
2019-05-13T00:46:23.612Z,0.00
2019-05-13T00:47:23.647Z,0.00
2019-05-13T00:48:23.366Z,0.00
2019-05-13T00:49:23.724Z,0.00
2019-05-13T00:50:21.397Z,0.00
2019-05-13T00:51:21.383Z,0.00
2019-05-13T00:52:23.447Z,0.00
2019-05-13T00:53:23.616Z,0.00
2019-05-13T00:54:23.527Z,0.00
2019-05-13T00:55:23.656Z,0.00
2019-05-13T00:56:23.643Z,0.00
2019-05-13T00:57:23.692Z,0.00
2019-05-13T00:58:21.310Z,0.00
2019-05-13T00:59:21.298Z,0.00
2019-05-13T01:00:21.289Z,0.00
2019-05-13T01:01:21.304Z,0.00
2019-05-13T01:02:21.288Z,0.00
2019-05-13T01:03:21.255Z,0.00
2019-05-13T01:04:23.173Z,0.00
2019-05-13T01:05:23.296Z,0.00
2019-05-13T01:06:21.236Z,0.00
2019-05-13T01:07:28.304Z,0.00
2019-05-13T01:08:23.686Z,0.00
2019-05-13T01:09:23.564Z,0.00
2019-05-13T01:10:21.182Z,0.00
2019-05-13T01:11:21.169Z,0.00
2019-05-13T01:12:21.177Z,0.00
2019-05-13T01:13:21.142Z,0.00
2019-05-13T01:14:23.342Z,0.00
2019-05-13T01:15:21.126Z,0.00
2019-05-13T01:16:22.940Z,0.00
2019-05-13T01:17:23.421Z,0.00
2019-05-13T01:18:23.275Z,0.00
2019-05-13T01:19:21.080Z,0.00
2019-05-13T01:20:23.439Z,0.00
2019-05-13T01:21:21.056Z,0.00
2019-05-13T01:22:21.078Z,0.00
2019-05-13T01:23:21.037Z,0.00
2019-05-13T01:24:21.018Z,0.00
2019-05-13T01:25:21.013Z,0.00
2019-05-13T01:26:23.169Z,0.00
2019-05-13T01:27:21.009Z,0.00
2019-05-13T01:28:20.978Z,0.00
2019-05-13T01:29:20.967Z,0.00
2019-05-13T01:30:20.954Z,0.00
2019-05-13T01:31:20.943Z,0.00
2019-05-13T01:32:20.952Z,0.00
2019-05-13T01:33:20.923Z,0.00
2019-05-13T01:34:20.916Z,0.00
2019-05-13T01:35:20.906Z,0.00
2019-05-13T01:36:20.889Z,0.00
2019-05-13T01:37:20.894Z,0.00
2019-05-13T01:38:20.866Z,0.00
2019-05-13T01:39:20.859Z,0.00
2019-05-13T01:40:20.855Z,0.00
2019-05-13T01:41:20.836Z,0.00
2019-05-13T01:42:20.850Z,0.00
2019-05-13T01:43:20.814Z,0.00
2019-05-13T01:44:20.802Z,0.00
2019-05-13T01:45:20.805Z,0.00
2019-05-13T01:46:20.777Z,0.00
2019-05-13T01:47:20.766Z,0.00
2019-05-13T01:48:20.774Z,0.00
2019-05-13T01:49:20.749Z,0.00
2019-05-13T01:50:20.745Z,0.00
2019-05-13T01:51:20.736Z,0.00
2019-05-13T01:52:20.712Z,0.00
2019-05-13T01:53:20.724Z,0.00
2019-05-13T01:54:20.687Z,0.00
2019-05-13T01:55:20.689Z,0.00
2019-05-13T01:56:20.665Z,0.00
2019-05-13T01:57:20.670Z,0.00
2019-05-13T01:58:20.666Z,0.00
2019-05-13T01:59:20.631Z,0.00
2019-05-13T02:00:20.618Z,0.00
2019-05-13T02:01:20.613Z,0.00
2019-05-13T02:02:20.612Z,0.00
2019-05-13T02:03:20.606Z,0.00
2019-05-13T02:04:20.580Z,0.00
2019-05-13T02:05:20.568Z,0.00
2019-05-13T02:06:20.569Z,0.00
2019-05-13T02:07:20.544Z,0.00
2019-05-13T02:08:20.558Z,0.00
2019-05-13T02:09:20.520Z,0.00
2019-05-13T02:10:20.510Z,0.00
2019-05-13T02:11:20.498Z,0.00
2019-05-13T02:12:20.490Z,0.00
2019-05-13T02:13:20.507Z,0.00
2019-05-13T02:14:20.464Z,0.00
2019-05-13T02:15:20.452Z,0.00
2019-05-13T02:16:20.446Z,0.00
2019-05-13T02:17:20.442Z,0.00
2019-05-13T02:18:20.442Z,0.00
2019-05-13T02:19:20.416Z,0.00
2019-05-13T02:20:20.411Z,0.00
2019-05-13T02:21:20.388Z,0.00
2019-05-13T02:22:20.378Z,0.00
2019-05-13T02:23:20.397Z,0.00
2019-05-13T02:24:20.356Z,0.00
2019-05-13T02:25:20.337Z,0.00
2019-05-13T02:26:20.377Z,0.00
2019-05-13T02:27:20.336Z,0.00
2019-05-13T02:28:20.308Z,0.00
2019-05-13T02:29:20.326Z,0.00
2019-05-13T02:30:20.295Z,0.00
2019-05-13T02:31:31.985Z,0.00
2019-05-13T02:32:23.475Z,0.00
2019-05-13T02:33:22.991Z,0.00
2019-05-13T02:34:23.200Z,0.00
2019-05-13T02:35:22.934Z,0.00
2019-05-13T02:36:22.764Z,0.00
2019-05-13T02:37:23.167Z,0.00
2019-05-13T02:38:24.717Z,0.00
2019-05-13T02:39:22.290Z,0.00
2019-05-13T02:40:22.681Z,0.00
2019-05-13T02:41:22.733Z,0.00
2019-05-13T02:42:22.868Z,0.00
2019-05-13T02:43:23.118Z,0.00
2019-05-13T02:44:22.532Z,4.00
2019-05-13T02:45:22.763Z,4.00
2019-05-13T02:46:22.653Z,0.00
2019-05-13T02:47:22.588Z,4.00
2019-05-13T02:48:23.348Z,4.00
2019-05-13T02:49:22.906Z,4.00
2019-05-13T02:50:22.607Z,4.00
2019-05-13T02:51:23.044Z,4.00
2019-05-13T02:52:22.353Z,8.00
2019-05-13T02:53:23.230Z,8.00
2019-05-13T02:54:22.891Z,8.00
2019-05-13T02:55:22.342Z,8.00
2019-05-13T02:56:22.629Z,8.00
2019-05-13T02:57:23.064Z,12.00
2019-05-13T02:58:24.456Z,16.00
2019-05-13T02:59:22.625Z,16.00
2019-05-13T03:00:19.954Z,16.00
2019-05-13T03:01:22.274Z,20.00
2019-05-13T03:02:22.395Z,24.00
2019-05-13T03:03:23.084Z,24.00
2019-05-13T03:04:23.070Z,24.00
2019-05-13T03:05:21.980Z,32.00
2019-05-13T03:06:22.248Z,32.00
2019-05-13T03:07:23.184Z,36.00
2019-05-13T03:08:38.601Z,40.00
2019-05-13T03:09:22.996Z,44.00
2019-05-13T03:10:22.216Z,52.00
2019-05-13T03:11:22.519Z,52.00
2019-05-13T03:12:22.791Z,56.00
2019-05-13T03:13:22.965Z,64.00
2019-05-13T03:14:23.519Z,72.00
2019-05-13T03:15:22.929Z,76.00
2019-05-13T03:16:22.902Z,80.00
2019-05-13T03:17:22.415Z,84.00
2019-05-13T03:18:22.527Z,92.00
2019-05-13T03:19:22.442Z,100.00
2019-05-13T03:20:22.440Z,108.00
2019-05-13T03:21:22.877Z,116.00
2019-05-13T03:22:22.405Z,124.00
2019-05-13T03:23:22.723Z,132.00
2019-05-13T03:24:22.770Z,144.00
2019-05-13T03:25:22.744Z,152.00
2019-05-13T03:26:23.195Z,160.00
2019-05-13T03:27:23.968Z,172.00
2019-05-13T03:28:22.368Z,180.00
2019-05-13T03:29:22.201Z,192.00
2019-05-13T03:30:24.473Z,200.00
2019-05-13T03:31:25.638Z,212.00
2019-05-13T03:32:25.997Z,224.00
2019-05-13T03:33:27.235Z,236.00
2019-05-13T03:34:25.559Z,248.00
2019-05-13T03:35:26.451Z,256.00
2019-05-13T03:36:25.537Z,268.00
2019-05-13T03:37:25.447Z,280.00
2019-05-13T03:38:22.503Z,288.00
2019-05-13T03:39:22.251Z,300.00
2019-05-13T03:40:22.773Z,312.00
2019-05-13T03:41:22.433Z,324.00
2019-05-13T03:42:22.315Z,332.00
2019-05-13T03:43:22.746Z,344.00
2019-05-13T03:44:23.263Z,356.00
2019-05-13T03:45:21.966Z,368.00
2019-05-13T03:46:22.409Z,380.00
2019-05-13T03:47:22.832Z,388.00
2019-05-13T03:48:23.321Z,400.00
2019-05-13T03:49:19.413Z,412.00
2019-05-13T03:50:22.341Z,420.00
2019-05-13T03:51:22.205Z,436.00
2019-05-13T03:52:22.272Z,444.00
2019-05-13T03:53:19.368Z,456.00
2019-05-13T03:54:22.408Z,464.00
2019-05-13T03:55:22.599Z,476.00
2019-05-13T03:56:19.326Z,484.00
2019-05-13T03:57:23.062Z,492.00
2019-05-13T03:58:19.327Z,504.00
2019-05-13T03:59:22.275Z,512.00
2019-05-13T04:00:19.310Z,520.00
2019-05-13T04:01:22.120Z,536.00
2019-05-13T04:02:22.403Z,544.00
2019-05-13T04:03:22.529Z,552.00
2019-05-13T04:04:23.022Z,560.00
2019-05-13T04:05:22.469Z,572.00
2019-05-13T04:06:19.232Z,584.00
2019-05-13T04:07:19.211Z,592.00
2019-05-13T04:08:22.459Z,604.00
2019-05-13T04:09:27.467Z,608.00
2019-05-13T04:10:23.036Z,620.00
2019-05-13T04:11:21.875Z,624.00
2019-05-13T04:12:22.598Z,636.00
2019-05-13T04:13:22.998Z,644.00
2019-05-13T04:14:22.565Z,652.00
2019-05-13T04:15:19.121Z,660.00
2019-05-13T04:16:19.142Z,664.00
2019-05-13T04:17:19.107Z,676.00
2019-05-13T04:18:19.089Z,684.00
2019-05-13T04:19:19.077Z,692.00
2019-05-13T04:20:19.064Z,700.00
2019-05-13T04:21:19.083Z,708.00
2019-05-13T04:22:19.048Z,712.00
2019-05-13T04:23:19.034Z,728.00
2019-05-13T04:24:19.018Z,732.00
2019-05-13T04:25:19.006Z,740.00
2019-05-13T04:26:19.023Z,748.00
2019-05-13T04:27:18.990Z,756.00
2019-05-13T04:28:21.945Z,764.00
2019-05-13T04:29:18.970Z,768.00
2019-05-13T04:30:22.106Z,780.00
2019-05-13T04:31:22.420Z,788.00
2019-05-13T04:32:18.930Z,796.00
2019-05-13T04:33:18.924Z,804.00
2019-05-13T04:34:18.918Z,812.00
2019-05-13T04:35:18.899Z,820.00
2019-05-13T04:36:18.918Z,832.00
2019-05-13T04:37:21.997Z,840.00
2019-05-13T04:38:21.709Z,848.00
2019-05-13T04:39:39.029Z,856.00
2019-05-13T04:40:22.930Z,864.00
2019-05-13T04:41:18.848Z,876.00
2019-05-13T04:42:18.820Z,892.00
2019-05-13T04:43:18.821Z,904.00
2019-05-13T04:44:18.793Z,908.00
2019-05-13T04:45:18.794Z,920.00
2019-05-13T04:46:18.798Z,936.00
2019-05-13T04:47:18.764Z,944.00
2019-05-13T04:48:18.751Z,952.00
2019-05-13T04:49:18.741Z,964.00
2019-05-13T04:50:22.041Z,976.00
2019-05-13T04:51:22.339Z,984.00
2019-05-13T04:52:18.722Z,1000.00
2019-05-13T04:53:18.697Z,1008.00
2019-05-13T04:54:18.685Z,1016.00
2019-05-13T04:55:18.702Z,1032.00
2019-05-13T04:56:18.661Z,1040.00
2019-05-13T04:57:18.695Z,1048.00
2019-05-13T04:58:18.641Z,1064.00
2019-05-13T04:59:18.627Z,1072.00
2019-05-13T05:00:18.630Z,1084.00
2019-05-13T05:01:18.611Z,1096.00
2019-05-13T05:02:22.081Z,1104.00
2019-05-13T05:03:23.036Z,1112.00
2019-05-13T05:04:24.072Z,1128.00
2019-05-13T05:05:22.419Z,1140.00
2019-05-13T05:06:18.552Z,1148.00
2019-05-13T05:07:18.632Z,1164.00
2019-05-13T05:08:18.570Z,1172.00
2019-05-13T05:09:18.528Z,1180.00
2019-05-13T05:10:30.520Z,1192.00
2019-05-13T05:11:22.221Z,1204.00
2019-05-13T05:12:18.505Z,1216.00
2019-05-13T05:13:18.481Z,1228.00
2019-05-13T05:14:18.464Z,1236.00
2019-05-13T05:15:18.463Z,1248.00
2019-05-13T05:16:18.444Z,1264.00
2019-05-13T05:17:18.448Z,1272.00
2019-05-13T05:18:18.422Z,1292.00
2019-05-13T05:19:18.418Z,1308.00
2019-05-13T05:20:18.396Z,1316.00
2019-05-13T05:21:18.389Z,1328.00
2019-05-13T05:22:18.815Z,1344.00
2019-05-13T05:23:18.363Z,1360.00
2019-05-13T05:24:18.372Z,1376.00
2019-05-13T05:25:18.349Z,1388.00
2019-05-13T05:26:18.336Z,1408.00
2019-05-13T05:27:18.346Z,1424.00
2019-05-13T05:28:18.309Z,1440.00
2019-05-13T05:29:18.297Z,1460.00
2019-05-13T05:30:18.299Z,1472.00
2019-05-13T05:31:18.276Z,1496.00
2019-05-13T05:32:18.283Z,1512.00
2019-05-13T05:33:18.255Z,1528.00
2019-05-13T05:34:18.238Z,1544.00
2019-05-13T05:35:18.243Z,1564.00
2019-05-13T05:36:18.227Z,1584.00
2019-05-13T05:37:18.242Z,1600.00
2019-05-13T05:38:18.197Z,1620.00
2019-05-13T05:39:18.186Z,1636.00
2019-05-13T05:40:31.024Z,1648.00
2019-05-13T05:41:20.973Z,1676.00
2019-05-13T05:42:18.180Z,1688.00
2019-05-13T05:43:18.142Z,1704.00
2019-05-13T05:44:18.629Z,1716.00
2019-05-13T05:45:18.124Z,1744.00
2019-05-13T05:46:18.115Z,1760.00
2019-05-13T05:47:18.110Z,1772.00
2019-05-13T05:48:18.109Z,1780.00
2019-05-13T05:49:18.074Z,1804.00
2019-05-13T05:50:18.069Z,1812.00
2019-05-13T05:51:18.049Z,1824.00
2019-05-13T05:52:18.045Z,1844.00
2019-05-13T05:53:18.052Z,1856.00
2019-05-13T05:54:18.021Z,1872.00
2019-05-13T05:55:18.008Z,1884.00
2019-05-13T05:56:17.993Z,1904.00
2019-05-13T05:57:17.985Z,1916.00
2019-05-13T05:58:17.990Z,1928.00
2019-05-13T05:59:17.966Z,1936.00
2019-05-13T06:00:17.961Z,1948.00
2019-05-13T06:01:17.988Z,1960.00
2019-05-13T06:02:17.935Z,1984.00
2019-05-13T06:03:17.968Z,1988.00
2019-05-13T06:04:17.915Z,2000.00
2019-05-13T06:05:17.898Z,2012.00
2019-05-13T06:06:17.891Z,2028.00
2019-05-13T06:07:17.878Z,2040.00
2019-05-13T06:08:17.996Z,2044.00
2019-05-13T06:09:17.865Z,2056.00
2019-05-13T06:10:17.845Z,2068.00
2019-05-13T06:11:17.840Z,2076.00
2019-05-13T06:12:17.822Z,2084.00
2019-05-13T06:13:17.827Z,2100.00
2019-05-13T06:14:17.804Z,2108.00
2019-05-13T06:15:17.789Z,2124.00
2019-05-13T06:16:17.778Z,2140.00
2019-05-13T06:17:17.763Z,2148.00
2019-05-13T06:18:17.772Z,2164.00
2019-05-13T06:19:18.139Z,2184.00
2019-05-13T06:20:17.731Z,2192.00
2019-05-13T06:21:17.722Z,2208.00
2019-05-13T06:22:17.707Z,2220.00
2019-05-13T06:23:17.721Z,2228.00
2019-05-13T06:24:17.689Z,2244.00
2019-05-13T06:25:17.679Z,2248.00
2019-05-13T06:26:17.666Z,2264.00
2019-05-13T06:27:17.652Z,2272.00
2019-05-13T06:28:17.661Z,2304.00
2019-05-13T06:29:17.632Z,2308.00
2019-05-13T06:30:17.630Z,2324.00
2019-05-13T06:31:17.608Z,2340.00
2019-05-13T06:32:23.523Z,2348.00
2019-05-13T06:33:21.043Z,2372.00
2019-05-13T06:34:17.575Z,2368.00
2019-05-13T06:35:17.580Z,2384.00
2019-05-13T06:36:17.552Z,2400.00
2019-05-13T06:37:17.543Z,2412.00
2019-05-13T06:38:17.553Z,2424.00
2019-05-13T06:39:17.536Z,2432.00
2019-05-13T06:40:17.508Z,2432.00
2019-05-13T06:41:17.504Z,2456.00
2019-05-13T06:42:17.483Z,2472.00
2019-05-13T06:43:17.474Z,2480.00
2019-05-13T06:44:17.488Z,2480.00
2019-05-13T06:45:17.450Z,2508.00
2019-05-13T06:46:17.446Z,2520.00
2019-05-13T06:47:17.451Z,2524.00
2019-05-13T06:48:17.422Z,2540.00
2019-05-13T06:49:17.427Z,2564.00
2019-05-13T06:50:17.402Z,2564.00
2019-05-13T06:51:17.389Z,2580.00
2019-05-13T06:52:17.373Z,2588.00
2019-05-13T06:53:17.359Z,2592.00
2019-05-13T06:54:17.374Z,2604.00
2019-05-13T06:55:17.339Z,2628.00
2019-05-13T06:56:17.330Z,2636.00
2019-05-13T06:57:17.319Z,2652.00
2019-05-13T06:58:17.323Z,2664.00
2019-05-13T06:59:17.319Z,2672.00
2019-05-13T07:00:17.283Z,2676.00
2019-05-13T07:01:17.277Z,2692.00
2019-05-13T07:02:17.329Z,2704.00
2019-05-13T07:03:17.254Z,2720.00
2019-05-13T07:04:17.322Z,2744.00
2019-05-13T07:05:17.232Z,2736.00
2019-05-13T07:06:17.225Z,2756.00
2019-05-13T07:07:17.622Z,2764.00
2019-05-13T07:08:17.197Z,2780.00
2019-05-13T07:09:17.217Z,2788.00
2019-05-13T07:10:17.170Z,2796.00
2019-05-13T07:11:21.483Z,2816.00
2019-05-13T07:12:18.151Z,2824.00
2019-05-13T07:13:17.145Z,2828.00
2019-05-13T07:14:17.151Z,2832.00
2019-05-13T07:15:17.119Z,2836.00
2019-05-13T07:16:17.106Z,2844.00
2019-05-13T07:17:17.105Z,2856.00
2019-05-13T07:18:17.087Z,2884.00
2019-05-13T07:19:17.094Z,2884.00
2019-05-13T07:20:17.059Z,2892.00
2019-05-13T07:21:17.063Z,2892.00
2019-05-13T07:22:17.043Z,2892.00
2019-05-13T07:23:17.023Z,2892.00
2019-05-13T07:24:17.075Z,2888.00
2019-05-13T07:25:17.018Z,2904.00
2019-05-13T07:26:16.999Z,2908.00
2019-05-13T07:27:16.991Z,2916.00
2019-05-13T07:28:16.971Z,2928.00
2019-05-13T07:29:17.404Z,2924.00
2019-05-13T07:30:16.952Z,2924.00
2019-05-13T07:31:16.945Z,2916.00
2019-05-13T07:32:16.939Z,2916.00
2019-05-13T07:33:16.925Z,2924.00
2019-05-13T07:34:16.920Z,2920.00
2019-05-13T07:35:16.919Z,2924.00
2019-05-13T07:36:16.891Z,2948.00
2019-05-13T07:37:16.871Z,2968.00
2019-05-13T07:38:16.866Z,2964.00
2019-05-13T07:39:16.855Z,2964.00
2019-05-13T07:40:16.878Z,2980.00
2019-05-13T07:41:16.826Z,2992.00
2019-05-13T07:42:16.820Z,3000.00
2019-05-13T07:43:16.816Z,3004.00
2019-05-13T07:44:16.803Z,3004.00
2019-05-13T07:45:16.822Z,3012.00
2019-05-13T07:46:16.769Z,3040.00
2019-05-13T07:47:16.769Z,3072.00
2019-05-13T07:48:22.716Z,3088.00
2019-05-13T07:49:17.742Z,3132.00
2019-05-13T07:50:16.750Z,3152.00
2019-05-13T07:51:16.713Z,3224.00
2019-05-13T07:52:16.706Z,3492.00
2019-05-13T07:53:18.973Z,3948.00
2019-05-13T07:54:16.688Z,4204.00
2019-05-13T07:55:16.719Z,4400.00
2019-05-13T07:56:16.675Z,4312.00
2019-05-13T07:57:16.646Z,3876.00
2019-05-13T07:58:16.642Z,6032.00
2019-05-13T07:59:16.634Z,6100.00
2019-05-13T08:00:16.643Z,4180.00
2019-05-13T08:01:16.613Z,4656.00
2019-05-13T08:02:16.623Z,4716.00
2019-05-13T08:03:16.582Z,4744.00
2019-05-13T08:04:22.330Z,4656.00
2019-05-13T08:05:17.581Z,4612.00
2019-05-13T08:06:16.553Z,4760.00
2019-05-13T08:07:16.550Z,5392.00
2019-05-13T08:08:16.529Z,5692.00
2019-05-13T08:09:16.534Z,5092.00
2019-05-13T08:10:16.534Z,4652.00
2019-05-13T08:11:16.587Z,3772.00
2019-05-13T08:12:16.709Z,4048.00
2019-05-13T08:13:16.483Z,4100.00
2019-05-13T08:14:16.470Z,4444.00
2019-05-13T08:15:16.452Z,5080.00
2019-05-13T08:16:16.506Z,5580.00
2019-05-13T08:17:16.431Z,5896.00
2019-05-13T08:18:16.427Z,5880.00
2019-05-13T08:19:16.413Z,5764.00
2019-05-13T08:20:16.412Z,5196.00
2019-05-13T08:21:16.403Z,5320.00
2019-05-13T08:22:16.483Z,4800.00
2019-05-13T08:23:16.357Z,4076.00
2019-05-13T08:24:16.354Z,3768.00
2019-05-13T08:25:16.335Z,3196.00
2019-05-13T08:26:16.343Z,2932.00
2019-05-13T08:27:21.617Z,4584.00
2019-05-13T08:28:17.314Z,4692.00
2019-05-13T08:29:16.293Z,4292.00
2019-05-13T08:30:18.237Z,3648.00
2019-05-13T08:31:16.301Z,4144.00
2019-05-13T08:32:16.302Z,5316.00
2019-05-13T08:33:16.264Z,6796.00
2019-05-13T08:34:16.239Z,5256.00
2019-05-13T08:35:16.247Z,5740.00
2019-05-13T08:36:16.243Z,5428.00
2019-05-13T08:37:16.206Z,4408.00
2019-05-13T08:38:16.195Z,4668.00
2019-05-13T08:39:16.181Z,3456.00
2019-05-13T08:40:16.173Z,3212.00
2019-05-13T08:41:19.418Z,3584.00
2019-05-13T08:42:20.115Z,3176.00
2019-05-13T08:43:17.248Z,4324.00
2019-05-13T08:44:16.143Z,3240.00
2019-05-13T08:45:16.126Z,3472.00
2019-05-13T08:46:16.125Z,4112.00
2019-05-13T08:47:16.109Z,5328.00
2019-05-13T08:48:16.107Z,5180.00
2019-05-13T08:49:16.067Z,5240.00
2019-05-13T08:50:16.061Z,5080.00
2019-05-13T08:51:16.075Z,5096.00
2019-05-13T08:52:16.042Z,4424.00
2019-05-13T08:53:16.050Z,5500.00
2019-05-13T08:54:16.035Z,4952.00
2019-05-13T08:55:16.355Z,4132.00
2019-05-13T08:56:16.015Z,4564.00
2019-05-13T08:57:15.983Z,4740.00
2019-05-13T08:58:15.980Z,4808.00
2019-05-13T08:59:15.966Z,4220.00
2019-05-13T09:00:15.952Z,5620.00
2019-05-13T09:01:15.946Z,6424.00
2019-05-13T09:02:15.951Z,7036.00
2019-05-13T09:03:15.926Z,5976.00
2019-05-13T09:04:15.900Z,4468.00
2019-05-13T09:05:15.901Z,5080.00
2019-05-13T09:06:15.879Z,4584.00
2019-05-13T09:07:15.884Z,4496.00
2019-05-13T09:08:15.859Z,4888.00
2019-05-13T09:09:15.852Z,4244.00
2019-05-13T09:10:15.845Z,4580.00
2019-05-13T09:11:15.821Z,6172.00
2019-05-13T09:12:28.472Z,6880.00
2019-05-13T09:13:16.810Z,6404.00
2019-05-13T09:14:15.793Z,7252.00
2019-05-13T09:15:15.788Z,6968.00
2019-05-13T09:16:15.770Z,7352.00
2019-05-13T09:17:15.786Z,7884.00
2019-05-13T09:18:15.745Z,7572.00
2019-05-13T09:19:16.372Z,6560.00
2019-05-13T09:20:15.743Z,5716.00
2019-05-13T09:21:15.715Z,5520.00
2019-05-13T09:22:15.726Z,5752.00
2019-05-13T09:23:15.698Z,5128.00
2019-05-13T09:24:24.520Z,5320.00
2019-05-13T09:25:16.682Z,5556.00
2019-05-13T09:26:15.664Z,5932.00
2019-05-13T09:27:15.675Z,6092.00
2019-05-13T09:28:15.666Z,7356.00
2019-05-13T09:29:15.630Z,7924.00
2019-05-13T09:30:15.623Z,7664.00
2019-05-13T09:31:15.754Z,8252.00
2019-05-13T09:32:15.615Z,8584.00
2019-05-13T09:33:15.581Z,7312.00
2019-05-13T09:34:15.576Z,5576.00
2019-05-13T09:35:15.563Z,4724.00
2019-05-13T09:36:15.555Z,4080.00
2019-05-13T09:37:15.546Z,3756.00
2019-05-13T09:38:15.522Z,3868.00
2019-05-13T09:39:15.531Z,4040.00
2019-05-13T09:40:15.503Z,4036.00
2019-05-13T09:41:15.490Z,3884.00
2019-05-13T09:42:15.498Z,3704.00
2019-05-13T09:43:15.489Z,3640.00
2019-05-13T09:44:15.454Z,3844.00
2019-05-13T09:45:15.450Z,4316.00
2019-05-13T09:46:15.434Z,4728.00
2019-05-13T09:47:15.445Z,5720.00
2019-05-13T09:48:15.419Z,6116.00
2019-05-13T09:49:19.643Z,6376.00
2019-05-13T09:50:28.288Z,6892.00
2019-05-13T09:51:16.373Z,7736.00
2019-05-13T09:52:15.397Z,8716.00
2019-05-13T09:53:15.361Z,9668.00
2019-05-13T09:54:15.383Z,9496.00
2019-05-13T09:55:28.290Z,10824.00
2019-05-13T09:56:16.328Z,13180.00
2019-05-13T09:57:15.522Z,14208.00
2019-05-13T09:58:15.306Z,14976.00
2019-05-13T09:59:15.287Z,11252.00
2019-05-13T10:00:15.287Z,8900.00
2019-05-13T10:01:15.265Z,7220.00
2019-05-13T10:02:15.281Z,5872.00
2019-05-13T10:03:15.249Z,4576.00
2019-05-13T10:04:15.230Z,3656.00
2019-05-13T10:05:15.231Z,3120.00
2019-05-13T10:06:15.215Z,2936.00
2019-05-13T10:07:15.270Z,2840.00
2019-05-13T10:08:15.196Z,2828.00
2019-05-13T10:09:15.183Z,2956.00
2019-05-13T10:10:15.177Z,3004.00
2019-05-13T10:11:15.160Z,2976.00
2019-05-13T10:12:15.162Z,3168.00
2019-05-13T10:13:15.800Z,3240.00
2019-05-13T10:14:15.137Z,3576.00
2019-05-13T10:15:15.115Z,4296.00
2019-05-13T10:16:15.104Z,5264.00
2019-05-13T10:17:15.117Z,89344.00
2019-05-13T10:18:15.089Z,113760.00
2019-05-13T10:19:15.106Z,12904.00
2019-05-13T10:20:15.063Z,114368.00
2019-05-13T10:21:15.044Z,116768.00
2019-05-13T10:22:15.048Z,83552.00
2019-05-13T10:23:15.025Z,123584.00
2019-05-13T10:24:15.043Z,27488.00
2019-05-13T10:25:15.023Z,11092.00
2019-05-13T10:26:14.988Z,8324.00
2019-05-13T10:28:15.966Z,6712.00
2019-05-13T10:29:14.954Z,5692.00
2019-05-13T10:30:14.945Z,4964.00
2019-05-13T10:31:14.940Z,4292.00
2019-05-13T10:32:14.949Z,3508.00
2019-05-13T10:33:14.910Z,3176.00
2019-05-13T10:34:14.899Z,3076.00
2019-05-13T10:35:14.891Z,3336.00
2019-05-13T10:36:14.878Z,4000.00
2019-05-13T10:37:14.887Z,4764.00
2019-05-13T10:38:14.854Z,6232.00
2019-05-13T10:39:14.851Z,8384.00
2019-05-13T10:40:14.835Z,12716.00
2019-05-13T10:41:14.827Z,110752.00
2019-05-13T10:42:14.847Z,83840.00
2019-05-13T10:43:29.241Z,142816.00
2019-05-13T10:44:15.792Z,140800.00
2019-05-13T10:45:14.775Z,138720.00
2019-05-13T10:46:14.777Z,138720.00
2019-05-13T10:47:14.772Z,136192.00
2019-05-13T10:48:14.746Z,132704.00
2019-05-13T10:49:14.733Z,146624.00
2019-05-13T10:50:14.729Z,172000.00
2019-05-13T10:51:14.716Z,176672.00
2019-05-13T10:52:14.726Z,169920.00
2019-05-13T10:53:14.697Z,175264.00
2019-05-13T10:54:14.702Z,182240.00
2019-05-13T10:55:14.669Z,94720.00
2019-05-13T10:56:14.662Z,177952.00
2019-05-13T10:57:14.652Z,161216.00
2019-05-13T10:58:14.672Z,171904.00
2019-05-13T10:59:14.635Z,19360.00
2019-05-13T11:00:14.622Z,16384.00
2019-05-13T11:01:14.612Z,8040.00
2019-05-13T11:02:14.596Z,6148.00
2019-05-13T11:03:14.621Z,5540.00
2019-05-13T11:04:14.579Z,5008.00
2019-05-13T11:05:14.570Z,4956.00
2019-05-13T11:06:14.561Z,5556.00
2019-05-13T11:07:14.551Z,65568.00
2019-05-13T11:08:14.578Z,175200.00
2019-05-13T11:09:14.523Z,33472.00
2019-05-13T11:10:14.515Z,120448.00
2019-05-13T11:11:14.516Z,167808.00
2019-05-13T11:12:14.489Z,122208.00
2019-05-13T11:13:14.506Z,37984.00
2019-05-13T11:14:15.679Z,33856.00
2019-05-13T11:15:14.466Z,23488.00
2019-05-13T11:16:14.459Z,25728.00
2019-05-13T11:17:14.438Z,156320.00
2019-05-13T11:18:19.363Z,56352.00
2019-05-13T11:19:15.415Z,20256.00
2019-05-13T11:20:14.409Z,17344.00
2019-05-13T11:21:14.426Z,22880.00
2019-05-13T11:22:14.392Z,9796.00
2019-05-13T11:23:14.399Z,7868.00
2019-05-13T11:24:14.395Z,7224.00
2019-05-13T11:25:14.353Z,7264.00
2019-05-13T11:26:14.350Z,6564.00
2019-05-13T11:27:14.335Z,6536.00
2019-05-13T11:28:14.355Z,7188.00
2019-05-13T11:29:14.317Z,8220.00
2019-05-13T11:30:14.316Z,8748.00
2019-05-13T11:31:14.299Z,50592.00
2019-05-13T11:32:14.282Z,141152.00
2019-05-13T11:33:14.293Z,145120.00
2019-05-13T11:34:14.255Z,140480.00
2019-05-13T11:35:14.254Z,150144.00
2019-05-13T11:36:18.943Z,129536.00
2019-05-13T11:37:15.230Z,142848.00
2019-05-13T11:38:14.227Z,142496.00
2019-05-13T11:39:14.213Z,143264.00
2019-05-13T11:40:14.204Z,133696.00
2019-05-13T11:41:14.183Z,46016.00
2019-05-13T11:42:14.172Z,117376.00
2019-05-13T11:43:14.187Z,85248.00
2019-05-13T11:44:16.905Z,17952.00
2019-05-13T11:45:14.149Z,14292.00
2019-05-13T11:46:14.140Z,113792.00
2019-05-13T11:47:14.122Z,20096.00
2019-05-13T11:48:14.131Z,25824.00
2019-05-13T11:49:14.103Z,24064.00
2019-05-13T11:50:14.092Z,131328.00
2019-05-13T11:51:14.101Z,51872.00
2019-05-13T11:52:14.090Z,19072.00
2019-05-13T11:53:31.393Z,13984.00
2019-05-13T11:54:15.056Z,15944.00
2019-05-13T11:55:14.047Z,24384.00
2019-05-13T11:56:14.033Z,13880.00
2019-05-13T11:57:14.022Z,12816.00
2019-05-13T11:58:14.321Z,36256.00
2019-05-13T11:59:14.447Z,115168.00
2019-05-13T12:00:13.992Z,116320.00
2019-05-13T12:01:14.004Z,114080.00
2019-05-13T12:02:14.160Z,113632.00
2019-05-13T12:03:13.979Z,108800.00
2019-05-13T12:04:13.952Z,110080.00
2019-05-13T12:05:13.943Z,103808.00
2019-05-13T12:06:13.937Z,95840.00
2019-05-13T12:07:13.931Z,37952.00
2019-05-13T12:08:13.935Z,55040.00
2019-05-13T12:09:13.922Z,50432.00
2019-05-13T12:10:13.901Z,19872.00
2019-05-13T12:11:14.282Z,11816.00
2019-05-13T12:12:14.065Z,17568.00
2019-05-13T12:13:13.902Z,13244.00
2019-05-13T12:14:37.968Z,7532.00
2019-05-13T12:15:38.137Z,5840.00
2019-05-13T12:16:14.828Z,7440.00
2019-05-13T12:17:14.378Z,23872.00
2019-05-13T12:18:13.813Z,8028.00
2019-05-13T12:19:13.807Z,9620.00
2019-05-13T12:20:13.783Z,9320.00
2019-05-13T12:21:13.775Z,9480.00
2019-05-13T12:22:13.784Z,10988.00